sensor_id;sensor_type;location;lat;lon;timestamp;temperature;humidity
16966;DHT22;8599;47.852;12.070;2023-05-14T00:00:40;12.40;99.90
16966;DHT22;8599;47.852;12.070;2023-05-14T00:03:07;12.40;99.90
16966;DHT22;8599;47.852;12.070;2023-05-14T00:05:35;12.40;99.90
16966;DHT22;8599;47.852;12.070;2023-05-14T00:08:01;12.40;99.90
16966;DHT22;8599;47.852;12.070;2023-05-14T00:10:28;12.40;99.90
16966;DHT22;8599;47.852;12.070;2023-05-14T00:12:55;12.40;99.90
16966;DHT22;8599;47.852;12.070;2023-05-14T00:15:22;12.40;99.90
16966;DHT22;8599;47.852;12.070;2023-05-14T00:17:49;12.40;99.90
16966;DHT22;8599;47.852;12.070;2023-05-14T00:20:15;12.40;99.90
16966;DHT22;8599;47.852;12.070;2023-05-14T00:22:43;12.40;99.90
16966;DHT22;8599;47.852;12.070;2023-05-14T00:25:10;12.40;99.90
16966;DHT22;8599;47.852;12.070;2023-05-14T00:27:37;12.40;99.90
16966;DHT22;8599;47.852;12.070;2023-05-14T00:30:05;12.30;99.90
16966;DHT22;8599;47.852;12.070;2023-05-14T00:32:32;12.40;99.90
16966;DHT22;8599;47.852;12.070;2023-05-14T00:34:59;12.30;99.90
16966;DHT22;8599;47.852;12.070;2023-05-14T00:37:27;12.30;99.90
16966;DHT22;8599;47.852;12.070;2023-05-14T00:39:55;12.30;99.90
16966;DHT22;8599;47.852;12.070;2023-05-14T00:42:22;12.30;99.90
16966;DHT22;8599;47.852;12.070;2023-05-14T00:44:49;12.30;99.90
16966;DHT22;8599;47.852;12.070;2023-05-14T00:47:16;12.30;99.90
16966;DHT22;8599;47.852;12.070;2023-05-14T00:49:44;12.40;99.90
16966;DHT22;8599;47.852;12.070;2023-05-14T00:52:11;12.40;99.90
16966;DHT22;8599;47.852;12.070;2023-05-14T00:54:38;12.40;99.90
16966;DHT22;8599;47.852;12.070;2023-05-14T00:57:07;12.40;99.90
16966;DHT22;8599;47.852;12.070;2023-05-14T00:59:34;12.40;99.90
16966;DHT22;8599;47.852;12.070;2023-05-14T01:02:01;12.30;99.90
16966;DHT22;8599;47.852;12.070;2023-05-14T01:04:28;12.40;99.90
16966;DHT22;8599;47.852;12.070;2023-05-14T01:07:06;12.30;99.90
16966;DHT22;8599;47.852;12.070;2023-05-14T01:09:37;12.40;99.90
16966;DHT22;8599;47.852;12.070;2023-05-14T01:12:15;12.40;99.90
16966;DHT22;8599;47.852;12.070;2023-05-14T01:14:51;12.40;99.90
16966;DHT22;8599;47.852;12.070;2023-05-14T01:17:21;12.40;99.90
16966;DHT22;8599;47.852;12.070;2023-05-14T01:19:50;12.40;99.90
16966;DHT22;8599;47.852;12.070;2023-05-14T01:22:18;12.40;99.90
16966;DHT22;8599;47.852;12.070;2023-05-14T01:24:45;12.40;99.90
16966;DHT22;8599;47.852;12.070;2023-05-14T01:27:16;12.30;99.90
16966;DHT22;8599;47.852;12.070;2023-05-14T01:29:47;12.40;99.90
16966;DHT22;8599;47.852;12.070;2023-05-14T01:32:16;12.40;99.90
16966;DHT22;8599;47.852;12.070;2023-05-14T01:34:46;12.40;99.90
16966;DHT22;8599;47.852;12.070;2023-05-14T01:37:14;12.40;99.90
16966;DHT22;8599;47.852;12.070;2023-05-14T01:39:44;12.40;99.90
16966;DHT22;8599;47.852;12.070;2023-05-14T01:42:11;12.40;99.90
16966;DHT22;8599;47.852;12.070;2023-05-14T01:44:38;12.40;99.90
16966;DHT22;8599;47.852;12.070;2023-05-14T01:47:05;12.40;99.90
16966;DHT22;8599;47.852;12.070;2023-05-14T01:49:32;12.40;99.90
16966;DHT22;8599;47.852;12.070;2023-05-14T01:51:59;12.30;99.90
16966;DHT22;8599;47.852;12.070;2023-05-14T01:54:26;12.30;99.90
16966;DHT22;8599;47.852;12.070;2023-05-14T01:56:54;12.40;99.90
16966;DHT22;8599;47.852;12.070;2023-05-14T01:59:21;12.40;99.90
16966;DHT22;8599;47.852;12.070;2023-05-14T02:01:47;12.40;99.90
16966;DHT22;8599;47.852;12.070;2023-05-14T02:04:14;12.40;99.90
16966;DHT22;8599;47.852;12.070;2023-05-14T02:06:41;12.30;99.90
16966;DHT22;8599;47.852;12.070;2023-05-14T02:09:08;12.40;99.90
16966;DHT22;8599;47.852;12.070;2023-05-14T02:11:34;12.40;99.90
16966;DHT22;8599;47.852;12.070;2023-05-14T02:14:03;12.40;99.90
16966;DHT22;8599;47.852;12.070;2023-05-14T02:16:29;12.40;99.90
16966;DHT22;8599;47.852;12.070;2023-05-14T02:18:56;12.30;99.90
16966;DHT22;8599;47.852;12.070;2023-05-14T02:21:23;12.30;99.90
16966;DHT22;8599;47.852;12.070;2023-05-14T02:23:50;12.30;99.90
16966;DHT22;8599;47.852;12.070;2023-05-14T02:26:17;12.30;99.90
16966;DHT22;8599;47.852;12.070;2023-05-14T02:28:43;12.30;99.90
16966;DHT22;8599;47.852;12.070;2023-05-14T02:31:12;12.20;99.90
16966;DHT22;8599;47.852;12.070;2023-05-14T02:33:39;12.20;99.90
16966;DHT22;8599;47.852;12.070;2023-05-14T02:36:06;12.30;99.90
16966;DHT22;8599;47.852;12.070;2023-05-14T02:38:33;12.20;99.90
16966;DHT22;8599;47.852;12.070;2023-05-14T02:41:00;12.20;99.90
16966;DHT22;8599;47.852;12.070;2023-05-14T02:43:26;12.20;99.90
16966;DHT22;8599;47.852;12.070;2023-05-14T02:45:53;12.10;99.90
16966;DHT22;8599;47.852;12.070;2023-05-14T02:48:21;12.20;99.90
16966;DHT22;8599;47.852;12.070;2023-05-14T02:50:49;12.20;99.90
16966;DHT22;8599;47.852;12.070;2023-05-14T02:53:16;12.10;99.90
16966;DHT22;8599;47.852;12.070;2023-05-14T02:55:43;12.10;99.90
16966;DHT22;8599;47.852;12.070;2023-05-14T02:58:10;12.10;99.90
16966;DHT22;8599;47.852;12.070;2023-05-14T03:00:36;12.10;99.90
16966;DHT22;8599;47.852;12.070;2023-05-14T03:03:03;12.00;99.90
16966;DHT22;8599;47.852;12.070;2023-05-14T03:05:31;12.00;99.90
16966;DHT22;8599;47.852;12.070;2023-05-14T03:07:58;12.00;99.90
16966;DHT22;8599;47.852;12.070;2023-05-14T03:10:25;12.00;99.90
16966;DHT22;8599;47.852;12.070;2023-05-14T03:12:52;11.90;99.90
16966;DHT22;8599;47.852;12.070;2023-05-14T03:15:19;11.80;99.90
16966;DHT22;8599;47.852;12.070;2023-05-14T03:17:46;11.80;99.90
16966;DHT22;8599;47.852;12.070;2023-05-14T03:20:12;11.80;99.90
16966;DHT22;8599;47.852;12.070;2023-05-14T03:22:41;11.80;99.90
16966;DHT22;8599;47.852;12.070;2023-05-14T03:25:08;11.80;99.90
16966;DHT22;8599;47.852;12.070;2023-05-14T03:27:35;11.80;99.90
16966;DHT22;8599;47.852;12.070;2023-05-14T03:30:02;11.90;99.90
16966;DHT22;8599;47.852;12.070;2023-05-14T03:32:29;11.90;99.90
16966;DHT22;8599;47.852;12.070;2023-05-14T03:34:56;11.90;99.90
16966;DHT22;8599;47.852;12.070;2023-05-14T03:37:23;11.90;99.90
16966;DHT22;8599;47.852;12.070;2023-05-14T03:39:51;11.90;99.90
16966;DHT22;8599;47.852;12.070;2023-05-14T03:42:18;11.80;99.90
16966;DHT22;8599;47.852;12.070;2023-05-14T03:44:45;11.80;99.90
16966;DHT22;8599;47.852;12.070;2023-05-14T03:47:12;11.80;99.90
16966;DHT22;8599;47.852;12.070;2023-05-14T03:49:38;11.80;99.90
16966;DHT22;8599;47.852;12.070;2023-05-14T03:52:05;11.80;99.90
16966;DHT22;8599;47.852;12.070;2023-05-14T03:54:32;11.70;99.90
16966;DHT22;8599;47.852;12.070;2023-05-14T03:57:01;11.80;99.90
16966;DHT22;8599;47.852;12.070;2023-05-14T03:59:27;11.90;99.90
16966;DHT22;8599;47.852;12.070;2023-05-14T04:01:54;11.80;99.90
16966;DHT22;8599;47.852;12.070;2023-05-14T04:04:21;11.60;99.90
16966;DHT22;8599;47.852;12.070;2023-05-14T04:06:48;11.60;99.90
16966;DHT22;8599;47.852;12.070;2023-05-14T04:09:15;11.50;99.90
16966;DHT22;8599;47.852;12.070;2023-05-14T04:11:41;11.40;99.90
16966;DHT22;8599;47.852;12.070;2023-05-14T04:14:09;11.40;99.90
16966;DHT22;8599;47.852;12.070;2023-05-14T04:16:36;11.40;99.90
16966;DHT22;8599;47.852;12.070;2023-05-14T04:19:03;11.40;99.90
16966;DHT22;8599;47.852;12.070;2023-05-14T04:21:30;11.50;99.90
16966;DHT22;8599;47.852;12.070;2023-05-14T04:23:57;11.50;99.90
16966;DHT22;8599;47.852;12.070;2023-05-14T04:26:24;11.60;99.90
16966;DHT22;8599;47.852;12.070;2023-05-14T04:28:51;11.60;99.90
16966;DHT22;8599;47.852;12.070;2023-05-14T04:31:19;11.60;99.90
16966;DHT22;8599;47.852;12.070;2023-05-14T04:33:46;11.60;99.90
16966;DHT22;8599;47.852;12.070;2023-05-14T04:36:13;11.70;99.90
16966;DHT22;8599;47.852;12.070;2023-05-14T04:38:40;11.70;99.90
16966;DHT22;8599;47.852;12.070;2023-05-14T04:41:07;11.70;99.90
16966;DHT22;8599;47.852;12.070;2023-05-14T04:43:34;11.70;99.90
16966;DHT22;8599;47.852;12.070;2023-05-14T04:46:00;11.70;99.90
16966;DHT22;8599;47.852;12.070;2023-05-14T04:48:29;11.70;99.90
16966;DHT22;8599;47.852;12.070;2023-05-14T04:50:56;11.80;99.90
16966;DHT22;8599;47.852;12.070;2023-05-14T04:53:23;11.80;99.90
16966;DHT22;8599;47.852;12.070;2023-05-14T04:55:49;11.80;99.90
16966;DHT22;8599;47.852;12.070;2023-05-14T04:58:16;11.80;99.90
16966;DHT22;8599;47.852;12.070;2023-05-14T05:00:43;11.80;99.90
16966;DHT22;8599;47.852;12.070;2023-05-14T05:03:10;11.80;99.90
16966;DHT22;8599;47.852;12.070;2023-05-14T05:05:38;11.80;99.90
16966;DHT22;8599;47.852;12.070;2023-05-14T05:08:05;11.80;99.90
16966;DHT22;8599;47.852;12.070;2023-05-14T05:10:32;11.80;99.90
16966;DHT22;8599;47.852;12.070;2023-05-14T05:12:59;11.80;99.90
16966;DHT22;8599;47.852;12.070;2023-05-14T05:15:26;11.80;99.90
16966;DHT22;8599;47.852;12.070;2023-05-14T05:17:53;11.80;99.90
16966;DHT22;8599;47.852;12.070;2023-05-14T05:20:19;11.70;99.90
16966;DHT22;8599;47.852;12.070;2023-05-14T05:22:48;11.70;99.90
16966;DHT22;8599;47.852;12.070;2023-05-14T05:25:14;11.70;99.90
16966;DHT22;8599;47.852;12.070;2023-05-14T05:27:41;11.70;99.90
16966;DHT22;8599;47.852;12.070;2023-05-14T05:30:09;11.60;99.90
16966;DHT22;8599;47.852;12.070;2023-05-14T05:32:36;11.70;99.90
16966;DHT22;8599;47.852;12.070;2023-05-14T05:35:03;11.70;99.90
16966;DHT22;8599;47.852;12.070;2023-05-14T05:37:31;11.70;99.90
16966;DHT22;8599;47.852;12.070;2023-05-14T05:39:59;11.80;99.90
16966;DHT22;8599;47.852;12.070;2023-05-14T05:42:25;11.70;99.90
16966;DHT22;8599;47.852;12.070;2023-05-14T05:44:52;11.80;99.90
16966;DHT22;8599;47.852;12.070;2023-05-14T05:47:19;11.80;99.90
16966;DHT22;8599;47.852;12.070;2023-05-14T05:49:46;11.80;99.90
16966;DHT22;8599;47.852;12.070;2023-05-14T05:52:13;11.80;99.90
16966;DHT22;8599;47.852;12.070;2023-05-14T05:54:40;11.80;99.90
16966;DHT22;8599;47.852;12.070;2023-05-14T05:57:08;11.80;99.90
16966;DHT22;8599;47.852;12.070;2023-05-14T05:59:35;11.80;99.90
16966;DHT22;8599;47.852;12.070;2023-05-14T06:02:01;11.70;99.90
16966;DHT22;8599;47.852;12.070;2023-05-14T06:04:28;11.70;99.90
16966;DHT22;8599;47.852;12.070;2023-05-14T06:06:55;11.70;99.90
16966;DHT22;8599;47.852;12.070;2023-05-14T06:09:22;11.80;99.90
16966;DHT22;8599;47.852;12.070;2023-05-14T06:11:48;11.90;99.90
16966;DHT22;8599;47.852;12.070;2023-05-14T06:14:17;12.00;99.90
16966;DHT22;8599;47.852;12.070;2023-05-14T06:16:43;12.00;99.90
16966;DHT22;8599;47.852;12.070;2023-05-14T06:19:10;12.00;99.90
16966;DHT22;8599;47.852;12.070;2023-05-14T06:21:37;12.10;99.90
16966;DHT22;8599;47.852;12.070;2023-05-14T06:24:04;12.10;99.90
16966;DHT22;8599;47.852;12.070;2023-05-14T06:26:31;12.00;99.90
16966;DHT22;8599;47.852;12.070;2023-05-14T06:28:58;12.10;99.90
16966;DHT22;8599;47.852;12.070;2023-05-14T06:31:26;12.10;99.90
16966;DHT22;8599;47.852;12.070;2023-05-14T06:33:53;12.10;99.90
16966;DHT22;8599;47.852;12.070;2023-05-14T06:36:20;12.20;99.90
16966;DHT22;8599;47.852;12.070;2023-05-14T06:38:47;12.20;99.90
16966;DHT22;8599;47.852;12.070;2023-05-14T06:41:14;12.10;99.90
16966;DHT22;8599;47.852;12.070;2023-05-14T06:43:40;12.00;99.90
16966;DHT22;8599;47.852;12.070;2023-05-14T06:46:07;12.00;99.90
16966;DHT22;8599;47.852;12.070;2023-05-14T06:48:35;12.00;99.90
16966;DHT22;8599;47.852;12.070;2023-05-14T06:51:02;11.90;99.90
16966;DHT22;8599;47.852;12.070;2023-05-14T06:53:29;11.80;99.90
16966;DHT22;8599;47.852;12.070;2023-05-14T06:55:56;11.70;99.90
16966;DHT22;8599;47.852;12.070;2023-05-14T06:58:23;11.50;99.90
16966;DHT22;8599;47.852;12.070;2023-05-14T07:00:50;11.60;99.90
16966;DHT22;8599;47.852;12.070;2023-05-14T07:03:17;11.60;99.90
16966;DHT22;8599;47.852;12.070;2023-05-14T07:05:45;11.60;99.90
16966;DHT22;8599;47.852;12.070;2023-05-14T07:08:12;11.60;99.90
16966;DHT22;8599;47.852;12.070;2023-05-14T07:10:38;11.60;99.90
16966;DHT22;8599;47.852;12.070;2023-05-14T07:13:05;11.70;99.90
16966;DHT22;8599;47.852;12.070;2023-05-14T07:15:32;11.80;99.90
16966;DHT22;8599;47.852;12.070;2023-05-14T07:17:59;11.90;99.90
16966;DHT22;8599;47.852;12.070;2023-05-14T07:20:25;11.90;99.90
16966;DHT22;8599;47.852;12.070;2023-05-14T07:22:54;11.90;99.90
16966;DHT22;8599;47.852;12.070;2023-05-14T07:25:20;11.90;99.90
16966;DHT22;8599;47.852;12.070;2023-05-14T07:27:47;11.90;99.90
16966;DHT22;8599;47.852;12.070;2023-05-14T07:30:14;11.90;99.90
16966;DHT22;8599;47.852;12.070;2023-05-14T07:32:41;11.90;99.90
16966;DHT22;8599;47.852;12.070;2023-05-14T07:35:08;11.90;99.90
16966;DHT22;8599;47.852;12.070;2023-05-14T07:37:36;12.00;99.90
16966;DHT22;8599;47.852;12.070;2023-05-14T07:40:05;11.90;99.90
16966;DHT22;8599;47.852;12.070;2023-05-14T07:42:32;11.90;99.90
16966;DHT22;8599;47.852;12.070;2023-05-14T07:44:59;11.90;99.90
16966;DHT22;8599;47.852;12.070;2023-05-14T07:47:26;11.90;99.90
16966;DHT22;8599;47.852;12.070;2023-05-14T07:49:53;12.00;99.90
16966;DHT22;8599;47.852;12.070;2023-05-14T07:52:20;12.00;99.90
16966;DHT22;8599;47.852;12.070;2023-05-14T07:54:48;12.10;99.90
16966;DHT22;8599;47.852;12.070;2023-05-14T07:57:17;12.20;99.90
16966;DHT22;8599;47.852;12.070;2023-05-14T07:59:43;12.20;99.90
16966;DHT22;8599;47.852;12.070;2023-05-14T08:02:10;12.10;99.90
16966;DHT22;8599;47.852;12.070;2023-05-14T08:04:38;12.10;99.90
16966;DHT22;8599;47.852;12.070;2023-05-14T08:07:05;12.10;99.90
16966;DHT22;8599;47.852;12.070;2023-05-14T08:09:33;12.20;99.90
16966;DHT22;8599;47.852;12.070;2023-05-14T08:11:59;12.10;99.90
16966;DHT22;8599;47.852;12.070;2023-05-14T08:14:28;12.00;99.90
16966;DHT22;8599;47.852;12.070;2023-05-14T08:16:54;12.10;99.90
16966;DHT22;8599;47.852;12.070;2023-05-14T08:19:22;12.20;99.90
16966;DHT22;8599;47.852;12.070;2023-05-14T08:21:49;12.20;99.90
16966;DHT22;8599;47.852;12.070;2023-05-14T08:24:16;12.20;99.90
16966;DHT22;8599;47.852;12.070;2023-05-14T08:26:43;12.20;99.90
16966;DHT22;8599;47.852;12.070;2023-05-14T08:29:10;12.20;99.90
16966;DHT22;8599;47.852;12.070;2023-05-14T08:31:38;12.30;99.90
16966;DHT22;8599;47.852;12.070;2023-05-14T08:34:05;12.30;99.90
16966;DHT22;8599;47.852;12.070;2023-05-14T08:36:32;12.40;99.90
16966;DHT22;8599;47.852;12.070;2023-05-14T08:38:59;12.40;99.90
16966;DHT22;8599;47.852;12.070;2023-05-14T08:41:26;12.50;99.90
16966;DHT22;8599;47.852;12.070;2023-05-14T08:44:04;12.50;99.90
16966;DHT22;8599;47.852;12.070;2023-05-14T08:46:32;12.60;99.90
16966;DHT22;8599;47.852;12.070;2023-05-14T08:49:07;12.60;99.90
16966;DHT22;8599;47.852;12.070;2023-05-14T08:51:37;12.60;99.90
16966;DHT22;8599;47.852;12.070;2023-05-14T08:54:05;12.70;99.90
16966;DHT22;8599;47.852;12.070;2023-05-14T08:56:32;12.60;99.90
16966;DHT22;8599;47.852;12.070;2023-05-14T08:58:59;12.70;99.90
16966;DHT22;8599;47.852;12.070;2023-05-14T09:01:26;12.70;99.90
16966;DHT22;8599;47.852;12.070;2023-05-14T09:03:54;12.80;99.90
16966;DHT22;8599;47.852;12.070;2023-05-14T09:06:23;12.90;99.90
16966;DHT22;8599;47.852;12.070;2023-05-14T09:08:51;12.80;99.90
16966;DHT22;8599;47.852;12.070;2023-05-14T09:11:18;12.90;99.90
16966;DHT22;8599;47.852;12.070;2023-05-14T09:13:45;13.00;99.90
16966;DHT22;8599;47.852;12.070;2023-05-14T09:16:11;13.10;99.90
16966;DHT22;8599;47.852;12.070;2023-05-14T09:18:42;13.00;99.90
16966;DHT22;8599;47.852;12.070;2023-05-14T09:21:09;13.10;99.90
16966;DHT22;8599;47.852;12.070;2023-05-14T09:23:40;13.00;99.90
16966;DHT22;8599;47.852;12.070;2023-05-14T09:26:07;13.10;99.90
16966;DHT22;8599;47.852;12.070;2023-05-14T09:28:34;12.90;99.90
16966;DHT22;8599;47.852;12.070;2023-05-14T09:31:01;13.00;99.90
16966;DHT22;8599;47.852;12.070;2023-05-14T09:33:28;13.00;99.90
16966;DHT22;8599;47.852;12.070;2023-05-14T09:35:57;13.00;99.90
16966;DHT22;8599;47.852;12.070;2023-05-14T09:38:27;12.90;99.90
16966;DHT22;8599;47.852;12.070;2023-05-14T09:40:56;12.90;99.90
16966;DHT22;8599;47.852;12.070;2023-05-14T09:43:23;13.00;99.90
16966;DHT22;8599;47.852;12.070;2023-05-14T09:45:50;13.00;99.90
16966;DHT22;8599;47.852;12.070;2023-05-14T09:48:17;13.00;99.90
16966;DHT22;8599;47.852;12.070;2023-05-14T09:50:45;13.10;99.90
16966;DHT22;8599;47.852;12.070;2023-05-14T09:53:12;13.10;99.90
16966;DHT22;8599;47.852;12.070;2023-05-14T09:55:40;13.20;99.90
16966;DHT22;8599;47.852;12.070;2023-05-14T09:58:08;13.10;99.90
16966;DHT22;8599;47.852;12.070;2023-05-14T10:00:35;13.10;99.90
16966;DHT22;8599;47.852;12.070;2023-05-14T10:03:04;13.10;99.90
16966;DHT22;8599;47.852;12.070;2023-05-14T10:05:34;13.10;99.90
16966;DHT22;8599;47.852;12.070;2023-05-14T10:08:07;13.00;99.90
16966;DHT22;8599;47.852;12.070;2023-05-14T10:10:34;13.10;99.90
16966;DHT22;8599;47.852;12.070;2023-05-14T10:13:04;13.10;99.90
16966;DHT22;8599;47.852;12.070;2023-05-14T10:15:38;13.20;99.90
16966;DHT22;8599;47.852;12.070;2023-05-14T10:18:09;13.20;99.90
16966;DHT22;8599;47.852;12.070;2023-05-14T10:20:36;13.10;99.90
16966;DHT22;8599;47.852;12.070;2023-05-14T10:23:04;13.00;99.90
16966;DHT22;8599;47.852;12.070;2023-05-14T10:25:32;12.80;99.90
16966;DHT22;8599;47.852;12.070;2023-05-14T10:27:59;12.70;99.90
16966;DHT22;8599;47.852;12.070;2023-05-14T10:30:26;12.70;99.90
16966;DHT22;8599;47.852;12.070;2023-05-14T10:33:07;12.70;99.90
16966;DHT22;8599;47.852;12.070;2023-05-14T10:35:58;12.80;99.90
16966;DHT22;8599;47.852;12.070;2023-05-14T10:38:26;12.70;99.90
16966;DHT22;8599;47.852;12.070;2023-05-14T10:40:59;12.70;99.90
16966;DHT22;8599;47.852;12.070;2023-05-14T10:43:27;12.60;99.90
16966;DHT22;8599;47.852;12.070;2023-05-14T10:45:55;12.60;99.90
16966;DHT22;8599;47.852;12.070;2023-05-14T10:48:24;12.70;99.90
16966;DHT22;8599;47.852;12.070;2023-05-14T10:50:52;12.80;99.90
16966;DHT22;8599;47.852;12.070;2023-05-14T10:53:19;12.80;99.90
16966;DHT22;8599;47.852;12.070;2023-05-14T10:55:46;12.80;99.90
16966;DHT22;8599;47.852;12.070;2023-05-14T10:58:14;12.80;99.90
16966;DHT22;8599;47.852;12.070;2023-05-14T11:00:41;12.80;99.90
16966;DHT22;8599;47.852;12.070;2023-05-14T11:03:09;12.60;99.90
16966;DHT22;8599;47.852;12.070;2023-05-14T11:05:39;12.70;99.90
16966;DHT22;8599;47.852;12.070;2023-05-14T11:08:07;12.80;99.90
16966;DHT22;8599;47.852;12.070;2023-05-14T11:10:34;12.90;99.90
16966;DHT22;8599;47.852;12.070;2023-05-14T11:13:03;13.10;99.90
16966;DHT22;8599;47.852;12.070;2023-05-14T11:15:30;13.30;99.90
16966;DHT22;8599;47.852;12.070;2023-05-14T11:17:57;13.30;99.90
16966;DHT22;8599;47.852;12.070;2023-05-14T11:20:24;13.30;99.90
16966;DHT22;8599;47.852;12.070;2023-05-14T11:22:52;13.30;99.90
16966;DHT22;8599;47.852;12.070;2023-05-14T11:25:19;13.50;99.90
16966;DHT22;8599;47.852;12.070;2023-05-14T11:27:47;13.70;99.90
16966;DHT22;8599;47.852;12.070;2023-05-14T11:30:17;13.90;99.90
16966;DHT22;8599;47.852;12.070;2023-05-14T11:32:44;14.00;99.90
16966;DHT22;8599;47.852;12.070;2023-05-14T11:35:11;14.20;99.90
16966;DHT22;8599;47.852;12.070;2023-05-14T11:37:38;14.20;99.90
16966;DHT22;8599;47.852;12.070;2023-05-14T11:40:14;14.10;99.90
16966;DHT22;8599;47.852;12.070;2023-05-14T11:42:41;14.10;99.90
16966;DHT22;8599;47.852;12.070;2023-05-14T11:45:10;14.20;99.90
16966;DHT22;8599;47.852;12.070;2023-05-14T11:47:37;14.40;99.90
16966;DHT22;8599;47.852;12.070;2023-05-14T11:50:05;14.40;99.90
16966;DHT22;8599;47.852;12.070;2023-05-14T11:52:36;14.60;99.90
16966;DHT22;8599;47.852;12.070;2023-05-14T11:55:04;14.40;99.90
16966;DHT22;8599;47.852;12.070;2023-05-14T11:57:32;14.30;99.90
16966;DHT22;8599;47.852;12.070;2023-05-14T11:59:59;14.40;99.90
16966;DHT22;8599;47.852;12.070;2023-05-14T12:02:26;14.40;99.90
16966;DHT22;8599;47.852;12.070;2023-05-14T12:04:54;14.50;99.90
16966;DHT22;8599;47.852;12.070;2023-05-14T12:07:20;14.50;99.90
16966;DHT22;8599;47.852;12.070;2023-05-14T12:09:48;14.70;99.90
16966;DHT22;8599;47.852;12.070;2023-05-14T12:12:17;14.80;99.90
16966;DHT22;8599;47.852;12.070;2023-05-14T12:14:46;14.90;99.90
16966;DHT22;8599;47.852;12.070;2023-05-14T12:17:15;15.00;99.90
16966;DHT22;8599;47.852;12.070;2023-05-14T12:19:44;14.90;99.90
16966;DHT22;8599;47.852;12.070;2023-05-14T12:22:12;14.90;99.90
16966;DHT22;8599;47.852;12.070;2023-05-14T12:24:40;15.00;99.90
16966;DHT22;8599;47.852;12.070;2023-05-14T12:27:08;15.00;99.90
16966;DHT22;8599;47.852;12.070;2023-05-14T12:29:35;15.00;99.90
16966;DHT22;8599;47.852;12.070;2023-05-14T12:32:07;15.00;99.90
16966;DHT22;8599;47.852;12.070;2023-05-14T12:34:34;14.90;99.90
16966;DHT22;8599;47.852;12.070;2023-05-14T12:37:01;14.70;99.90
16966;DHT22;8599;47.852;12.070;2023-05-14T12:39:31;14.70;99.90
16966;DHT22;8599;47.852;12.070;2023-05-14T12:41:57;14.70;99.90
16966;DHT22;8599;47.852;12.070;2023-05-14T12:44:24;14.60;99.90
16966;DHT22;8599;47.852;12.070;2023-05-14T12:46:51;14.40;99.90
16966;DHT22;8599;47.852;12.070;2023-05-14T12:49:19;14.30;99.90
16966;DHT22;8599;47.852;12.070;2023-05-14T12:51:46;14.30;99.90
16966;DHT22;8599;47.852;12.070;2023-05-14T12:54:13;14.20;99.90
16966;DHT22;8599;47.852;12.070;2023-05-14T12:56:40;14.30;99.90
16966;DHT22;8599;47.852;12.070;2023-05-14T12:59:07;14.30;99.90
16966;DHT22;8599;47.852;12.070;2023-05-14T13:01:35;14.40;99.90
16966;DHT22;8599;47.852;12.070;2023-05-14T13:04:03;14.50;99.90
16966;DHT22;8599;47.852;12.070;2023-05-14T13:06:31;14.40;99.90
16966;DHT22;8599;47.852;12.070;2023-05-14T13:08:58;14.60;99.90
16966;DHT22;8599;47.852;12.070;2023-05-14T13:11:26;14.70;99.90
16966;DHT22;8599;47.852;12.070;2023-05-14T13:13:56;15.00;99.90
16966;DHT22;8599;47.852;12.070;2023-05-14T13:16:24;15.60;99.90
16966;DHT22;8599;47.852;12.070;2023-05-14T13:18:51;16.30;99.90
16966;DHT22;8599;47.852;12.070;2023-05-14T13:21:18;16.50;99.90
16966;DHT22;8599;47.852;12.070;2023-05-14T13:23:46;16.60;99.90
16966;DHT22;8599;47.852;12.070;2023-05-14T13:26:13;16.40;99.90
16966;DHT22;8599;47.852;12.070;2023-05-14T13:28:40;16.40;99.90
16966;DHT22;8599;47.852;12.070;2023-05-14T13:31:08;16.50;99.90
16966;DHT22;8599;47.852;12.070;2023-05-14T13:33:37;16.60;99.90
16966;DHT22;8599;47.852;12.070;2023-05-14T13:36:04;16.80;99.90
16966;DHT22;8599;47.852;12.070;2023-05-14T13:38:31;17.10;99.90
16966;DHT22;8599;47.852;12.070;2023-05-14T13:40:59;17.30;99.90
16966;DHT22;8599;47.852;12.070;2023-05-14T13:43:28;17.20;99.90
16966;DHT22;8599;47.852;12.070;2023-05-14T13:45:55;16.70;99.90
16966;DHT22;8599;47.852;12.070;2023-05-14T13:48:22;16.50;99.90
16966;DHT22;8599;47.852;12.070;2023-05-14T13:50:49;16.40;99.90
16966;DHT22;8599;47.852;12.070;2023-05-14T13:53:16;16.40;99.90
16966;DHT22;8599;47.852;12.070;2023-05-14T13:55:43;16.40;99.90
16966;DHT22;8599;47.852;12.070;2023-05-14T13:58:11;16.70;99.90
16966;DHT22;8599;47.852;12.070;2023-05-14T14:00:38;17.00;99.90
16966;DHT22;8599;47.852;12.070;2023-05-14T14:03:06;17.30;99.90
16966;DHT22;8599;47.852;12.070;2023-05-14T14:05:33;17.50;99.90
16966;DHT22;8599;47.852;12.070;2023-05-14T14:08:00;17.50;99.90
16966;DHT22;8599;47.852;12.070;2023-05-14T14:10:27;17.20;99.90
16966;DHT22;8599;47.852;12.070;2023-05-14T14:12:54;17.00;99.90
16966;DHT22;8599;47.852;12.070;2023-05-14T14:15:22;16.70;99.90
16966;DHT22;8599;47.852;12.070;2023-05-14T14:17:49;16.70;99.90
16966;DHT22;8599;47.852;12.070;2023-05-14T14:20:16;16.90;99.90
16966;DHT22;8599;47.852;12.070;2023-05-14T14:22:43;16.80;99.90
16966;DHT22;8599;47.852;12.070;2023-05-14T14:25:10;16.80;99.90
16966;DHT22;8599;47.852;12.070;2023-05-14T14:27:37;16.80;99.90
16966;DHT22;8599;47.852;12.070;2023-05-14T14:30:06;16.80;99.90
16966;DHT22;8599;47.852;12.070;2023-05-14T14:32:35;16.90;99.90
16966;DHT22;8599;47.852;12.070;2023-05-14T14:35:02;17.10;99.90
16966;DHT22;8599;47.852;12.070;2023-05-14T14:37:28;17.20;99.90
16966;DHT22;8599;47.852;12.070;2023-05-14T14:39:55;17.30;99.90
16966;DHT22;8599;47.852;12.070;2023-05-14T14:42:22;17.10;99.90
16966;DHT22;8599;47.852;12.070;2023-05-14T14:44:49;17.20;99.90
16966;DHT22;8599;47.852;12.070;2023-05-14T14:47:15;17.00;99.90
16966;DHT22;8599;47.852;12.070;2023-05-14T14:49:44;16.90;99.90
16966;DHT22;8599;47.852;12.070;2023-05-14T14:52:10;16.90;99.90
16966;DHT22;8599;47.852;12.070;2023-05-14T14:54:37;17.00;99.90
16966;DHT22;8599;47.852;12.070;2023-05-14T14:57:04;17.00;99.90
16966;DHT22;8599;47.852;12.070;2023-05-14T14:59:31;17.20;99.90
16966;DHT22;8599;47.852;12.070;2023-05-14T15:01:58;17.10;99.90
16966;DHT22;8599;47.852;12.070;2023-05-14T15:04:25;17.10;99.90
16966;DHT22;8599;47.852;12.070;2023-05-14T15:06:53;17.10;99.90
16966;DHT22;8599;47.852;12.070;2023-05-14T15:09:20;17.00;99.90
16966;DHT22;8599;47.852;12.070;2023-05-14T15:11:46;17.00;99.90
16966;DHT22;8599;47.852;12.070;2023-05-14T15:14:13;16.90;99.90
16966;DHT22;8599;47.852;12.070;2023-05-14T15:16:40;16.70;99.90
16966;DHT22;8599;47.852;12.070;2023-05-14T15:19:07;16.70;99.90
16966;DHT22;8599;47.852;12.070;2023-05-14T15:21:34;16.60;99.90
16966;DHT22;8599;47.852;12.070;2023-05-14T15:24:04;16.60;99.90
16966;DHT22;8599;47.852;12.070;2023-05-14T15:26:31;16.60;99.90
16966;DHT22;8599;47.852;12.070;2023-05-14T15:28:58;16.50;99.90
16966;DHT22;8599;47.852;12.070;2023-05-14T15:31:25;16.40;99.90